sensor_id;sensor_type;location;lat;lon;timestamp;temperature;humidity
36450;DHT22;22475;51.390;7.180;2024-03-08T00:02:35;10.70;60.90
36450;DHT22;22475;51.390;7.180;2024-03-08T00:05:02;10.70;60.70
36450;DHT22;22475;51.390;7.180;2024-03-08T00:07:29;10.70;60.80
36450;DHT22;22475;51.390;7.180;2024-03-08T00:09:56;10.70;60.70
36450;DHT22;22475;51.390;7.180;2024-03-08T00:12:23;10.70;61.10
36450;DHT22;22475;51.390;7.180;2024-03-08T00:14:51;10.70;61.20
36450;DHT22;22475;51.390;7.180;2024-03-08T00:17:19;10.70;61.20
36450;DHT22;22475;51.390;7.180;2024-03-08T00:19:46;10.70;61.10
36450;DHT22;22475;51.390;7.180;2024-03-08T00:22:12;10.70;61.40
36450;DHT22;22475;51.390;7.180;2024-03-08T00:24:39;10.70;61.50
36450;DHT22;22475;51.390;7.180;2024-03-08T00:27:06;10.70;62.00
36450;DHT22;22475;51.390;7.180;2024-03-08T00:29:34;10.60;62.30
36450;DHT22;22475;51.390;7.180;2024-03-08T00:32:01;10.60;62.50
36450;DHT22;22475;51.390;7.180;2024-03-08T00:34:29;10.60;62.80
36450;DHT22;22475;51.390;7.180;2024-03-08T00:36:57;10.60;62.80
36450;DHT22;22475;51.390;7.180;2024-03-08T00:39:23;10.60;63.10
36450;DHT22;22475;51.390;7.180;2024-03-08T00:41:51;10.50;63.30
36450;DHT22;22475;51.390;7.180;2024-03-08T00:44:17;10.50;63.30
36450;DHT22;22475;51.390;7.180;2024-03-08T00:46:44;10.50;63.20
36450;DHT22;22475;51.390;7.180;2024-03-08T00:49:11;10.50;63.20
36450;DHT22;22475;51.390;7.180;2024-03-08T00:51:39;10.50;63.20
36450;DHT22;22475;51.390;7.180;2024-03-08T00:54:06;10.50;62.80
36450;DHT22;22475;51.390;7.180;2024-03-08T00:56:33;10.50;62.70
36450;DHT22;22475;51.390;7.180;2024-03-08T00:59:00;10.50;62.70
36450;DHT22;22475;51.390;7.180;2024-03-08T01:01:27;10.50;62.40
36450;DHT22;22475;51.390;7.180;2024-03-08T01:03:55;10.50;62.60
36450;DHT22;22475;51.390;7.180;2024-03-08T01:06:22;10.40;62.70
36450;DHT22;22475;51.390;7.180;2024-03-08T01:08:50;10.40;62.70
36450;DHT22;22475;51.390;7.180;2024-03-08T01:11:18;10.40;62.70
36450;DHT22;22475;51.390;7.180;2024-03-08T01:13:45;10.40;62.80
36450;DHT22;22475;51.390;7.180;2024-03-08T01:16:12;10.40;63.10
36450;DHT22;22475;51.390;7.180;2024-03-08T01:18:39;10.30;63.10
36450;DHT22;22475;51.390;7.180;2024-03-08T01:21:06;10.30;63.00
36450;DHT22;22475;51.390;7.180;2024-03-08T01:23:32;10.30;63.00
36450;DHT22;22475;51.390;7.180;2024-03-08T01:26:01;10.30;63.00
36450;DHT22;22475;51.390;7.180;2024-03-08T01:28:28;10.30;63.10
36450;DHT22;22475;51.390;7.180;2024-03-08T01:30:55;10.20;63.00
36450;DHT22;22475;51.390;7.180;2024-03-08T01:33:22;10.20;63.10
36450;DHT22;22475;51.390;7.180;2024-03-08T01:35:49;10.20;63.20
36450;DHT22;22475;51.390;7.180;2024-03-08T01:38:16;10.20;63.30
36450;DHT22;22475;51.390;7.180;2024-03-08T01:40:43;10.20;63.50
36450;DHT22;22475;51.390;7.180;2024-03-08T01:43:18;10.20;63.80
36450;DHT22;22475;51.390;7.180;2024-03-08T01:45:45;10.20;63.40
36450;DHT22;22475;51.390;7.180;2024-03-08T01:48:12;10.20;63.40
36450;DHT22;22475;51.390;7.180;2024-03-08T01:50:40;10.20;63.30
36450;DHT22;22475;51.390;7.180;2024-03-08T01:53:07;10.20;63.20
36450;DHT22;22475;51.390;7.180;2024-03-08T01:55:36;10.20;63.00
36450;DHT22;22475;51.390;7.180;2024-03-08T01:58:03;10.20;62.70
36450;DHT22;22475;51.390;7.180;2024-03-08T02:00:33;10.20;62.70
36450;DHT22;22475;51.390;7.180;2024-03-08T02:03:00;10.20;62.90
36450;DHT22;22475;51.390;7.180;2024-03-08T02:05:28;10.20;62.90
36450;DHT22;22475;51.390;7.180;2024-03-08T02:07:55;10.20;62.90
36450;DHT22;22475;51.390;7.180;2024-03-08T02:10:22;10.10;63.20
36450;DHT22;22475;51.390;7.180;2024-03-08T02:12:49;10.10;63.30
36450;DHT22;22475;51.390;7.180;2024-03-08T02:15:17;10.10;63.30
36450;DHT22;22475;51.390;7.180;2024-03-08T02:17:45;10.10;63.40
36450;DHT22;22475;51.390;7.180;2024-03-08T02:20:12;10.10;63.60
36450;DHT22;22475;51.390;7.180;2024-03-08T02:22:41;10.00;63.40
36450;DHT22;22475;51.390;7.180;2024-03-08T02:25:08;10.00;63.30
36450;DHT22;22475;51.390;7.180;2024-03-08T02:27:35;10.00;63.20
36450;DHT22;22475;51.390;7.180;2024-03-08T02:30:03;10.00;63.30
36450;DHT22;22475;51.390;7.180;2024-03-08T02:32:30;10.00;63.50
36450;DHT22;22475;51.390;7.180;2024-03-08T02:34:58;10.00;63.60
36450;DHT22;22475;51.390;7.180;2024-03-08T02:37:25;9.90;63.50
36450;DHT22;22475;51.390;7.180;2024-03-08T02:39:58;9.90;63.40
36450;DHT22;22475;51.390;7.180;2024-03-08T02:42:25;9.90;63.50
36450;DHT22;22475;51.390;7.180;2024-03-08T02:44:52;9.90;63.40
36450;DHT22;22475;51.390;7.180;2024-03-08T02:47:19;9.90;63.70
36450;DHT22;22475;51.390;7.180;2024-03-08T02:49:45;9.90;63.80
36450;DHT22;22475;51.390;7.180;2024-03-08T02:52:12;9.80;64.00
36450;DHT22;22475;51.390;7.180;2024-03-08T02:54:39;9.80;63.90
36450;DHT22;22475;51.390;7.180;2024-03-08T02:57:07;9.80;64.00
36450;DHT22;22475;51.390;7.180;2024-03-08T02:59:34;9.80;64.00
36450;DHT22;22475;51.390;7.180;2024-03-08T03:02:01;9.80;63.90
36450;DHT22;22475;51.390;7.180;2024-03-08T03:04:28;9.70;63.90
36450;DHT22;22475;51.390;7.180;2024-03-08T03:06:54;9.70;64.10
36450;DHT22;22475;51.390;7.180;2024-03-08T03:09:21;9.70;64.30
36450;DHT22;22475;51.390;7.180;2024-03-08T03:11:53;9.70;64.30
36450;DHT22;22475;51.390;7.180;2024-03-08T03:14:21;9.70;64.20
36450;DHT22;22475;51.390;7.180;2024-03-08T03:16:47;9.70;64.10
36450;DHT22;22475;51.390;7.180;2024-03-08T03:19:13;9.70;65.10
36450;DHT22;22475;51.390;7.180;2024-03-08T03:21:40;9.70;64.20
36450;DHT22;22475;51.390;7.180;2024-03-08T03:24:08;9.70;64.10
36450;DHT22;22475;51.390;7.180;2024-03-08T03:26:36;9.70;64.20
36450;DHT22;22475;51.390;7.180;2024-03-08T03:29:04;9.70;64.30
36450;DHT22;22475;51.390;7.180;2024-03-08T03:31:35;9.70;64.30
36450;DHT22;22475;51.390;7.180;2024-03-08T03:34:02;9.70;64.50
36450;DHT22;22475;51.390;7.180;2024-03-08T03:36:29;9.60;64.40
36450;DHT22;22475;51.390;7.180;2024-03-08T03:38:56;9.60;64.30
36450;DHT22;22475;51.390;7.180;2024-03-08T03:41:32;9.60;64.10
36450;DHT22;22475;51.390;7.180;2024-03-08T03:43:59;9.60;64.10
36450;DHT22;22475;51.390;7.180;2024-03-08T03:46:26;9.60;64.00
36450;DHT22;22475;51.390;7.180;2024-03-08T03:48:54;9.60;64.30
36450;DHT22;22475;51.390;7.180;2024-03-08T03:51:21;9.60;64.40
36450;DHT22;22475;51.390;7.180;2024-03-08T03:53:48;9.60;64.50
36450;DHT22;22475;51.390;7.180;2024-03-08T03:56:15;9.60;64.80
36450;DHT22;22475;51.390;7.180;2024-03-08T03:58:42;9.50;64.70
36450;DHT22;22475;51.390;7.180;2024-03-08T04:01:09;9.50;64.50
36450;DHT22;22475;51.390;7.180;2024-03-08T04:03:36;9.50;64.60
36450;DHT22;22475;51.390;7.180;2024-03-08T04:06:04;9.60;64.90
36450;DHT22;22475;51.390;7.180;2024-03-08T04:08:31;9.50;64.90
36450;DHT22;22475;51.390;7.180;2024-03-08T04:11:00;9.50;64.80
36450;DHT22;22475;51.390;7.180;2024-03-08T04:13:26;9.50;64.70
36450;DHT22;22475;51.390;7.180;2024-03-08T04:15:53;9.50;64.80
36450;DHT22;22475;51.390;7.180;2024-03-08T04:18:20;9.50;64.90
36450;DHT22;22475;51.390;7.180;2024-03-08T04:20:47;9.50;64.70
36450;DHT22;22475;51.390;7.180;2024-03-08T04:23:15;9.50;64.70
36450;DHT22;22475;51.390;7.180;2024-03-08T04:25:43;9.50;64.60
36450;DHT22;22475;51.390;7.180;2024-03-08T04:28:10;9.50;64.60
36450;DHT22;22475;51.390;7.180;2024-03-08T04:30:37;9.50;64.50
36450;DHT22;22475;51.390;7.180;2024-03-08T04:33:05;9.50;64.80
36450;DHT22;22475;51.390;7.180;2024-03-08T04:35:32;9.50;64.80
36450;DHT22;22475;51.390;7.180;2024-03-08T04:37:59;9.40;64.60
36450;DHT22;22475;51.390;7.180;2024-03-08T04:40:27;9.50;64.50
36450;DHT22;22475;51.390;7.180;2024-03-08T04:42:54;9.40;64.50
36450;DHT22;22475;51.390;7.180;2024-03-08T04:45:20;9.40;64.80
36450;DHT22;22475;51.390;7.180;2024-03-08T04:47:47;9.40;65.00
36450;DHT22;22475;51.390;7.180;2024-03-08T04:50:14;9.40;64.90
36450;DHT22;22475;51.390;7.180;2024-03-08T04:52:41;9.40;64.90
36450;DHT22;22475;51.390;7.180;2024-03-08T04:55:08;9.40;64.80
36450;DHT22;22475;51.390;7.180;2024-03-08T04:57:37;9.40;64.80
36450;DHT22;22475;51.390;7.180;2024-03-08T05:00:04;9.40;64.70
36450;DHT22;22475;51.390;7.180;2024-03-08T05:02:36;9.40;64.70
36450;DHT22;22475;51.390;7.180;2024-03-08T05:05:04;9.40;64.70
36450;DHT22;22475;51.390;7.180;2024-03-08T05:07:32;9.40;64.80
36450;DHT22;22475;51.390;7.180;2024-03-08T05:09:59;9.30;65.20
36450;DHT22;22475;51.390;7.180;2024-03-08T05:12:26;9.30;65.20
36450;DHT22;22475;51.390;7.180;2024-03-08T05:14:54;9.30;65.00
36450;DHT22;22475;51.390;7.180;2024-03-08T05:17:20;9.30;64.90
36450;DHT22;22475;51.390;7.180;2024-03-08T05:19:49;9.40;64.80
36450;DHT22;22475;51.390;7.180;2024-03-08T05:22:16;9.30;64.80
36450;DHT22;22475;51.390;7.180;2024-03-08T05:24:43;9.30;64.80
36450;DHT22;22475;51.390;7.180;2024-03-08T05:27:10;9.30;64.60
36450;DHT22;22475;51.390;7.180;2024-03-08T05:29:36;9.40;64.90
36450;DHT22;22475;51.390;7.180;2024-03-08T05:32:05;9.30;65.20
36450;DHT22;22475;51.390;7.180;2024-03-08T05:34:32;9.30;65.30
36450;DHT22;22475;51.390;7.180;2024-03-08T05:36:59;9.30;65.20
36450;DHT22;22475;51.390;7.180;2024-03-08T05:39:27;9.30;65.00
36450;DHT22;22475;51.390;7.180;2024-03-08T05:41:53;9.40;65.00
36450;DHT22;22475;51.390;7.180;2024-03-08T05:44:21;9.40;64.60
36450;DHT22;22475;51.390;7.180;2024-03-08T05:46:48;9.40;64.50
36450;DHT22;22475;51.390;7.180;2024-03-08T05:49:17;9.40;64.50
36450;DHT22;22475;51.390;7.180;2024-03-08T05:51:44;9.30;64.40
36450;DHT22;22475;51.390;7.180;2024-03-08T05:54:13;9.30;64.30
36450;DHT22;22475;51.390;7.180;2024-03-08T05:56:40;9.30;64.10
36450;DHT22;22475;51.390;7.180;2024-03-08T05:59:07;9.40;64.10
36450;DHT22;22475;51.390;7.180;2024-03-08T06:01:34;9.30;63.90
36450;DHT22;22475;51.390;7.180;2024-03-08T06:04:02;9.30;63.80
36450;DHT22;22475;51.390;7.180;2024-03-08T06:06:30;9.30;64.20
36450;DHT22;22475;51.390;7.180;2024-03-08T06:08:57;9.30;64.30
36450;DHT22;22475;51.390;7.180;2024-03-08T06:11:24;9.30;64.10
36450;DHT22;22475;51.390;7.180;2024-03-08T06:13:52;9.30;64.30
36450;DHT22;22475;51.390;7.180;2024-03-08T06:16:25;9.30;64.50
36450;DHT22;22475;51.390;7.180;2024-03-08T06:18:55;9.30;64.50
36450;DHT22;22475;51.390;7.180;2024-03-08T06:21:22;9.30;64.70
36450;DHT22;22475;51.390;7.180;2024-03-08T06:23:52;9.20;64.50
36450;DHT22;22475;51.390;7.180;2024-03-08T06:26:20;9.20;64.50
36450;DHT22;22475;51.390;7.180;2024-03-08T06:28:47;9.20;64.50
36450;DHT22;22475;51.390;7.180;2024-03-08T06:31:14;9.20;64.60
36450;DHT22;22475;51.390;7.180;2024-03-08T06:33:41;9.20;64.70
36450;DHT22;22475;51.390;7.180;2024-03-08T06:36:09;9.20;64.70
36450;DHT22;22475;51.390;7.180;2024-03-08T06:38:37;9.20;64.80
36450;DHT22;22475;51.390;7.180;2024-03-08T06:41:09;9.20;64.80
36450;DHT22;22475;51.390;7.180;2024-03-08T06:43:41;9.30;64.70
36450;DHT22;22475;51.390;7.180;2024-03-08T06:46:07;9.30;64.70
36450;DHT22;22475;51.390;7.180;2024-03-08T06:48:34;9.30;65.00
36450;DHT22;22475;51.390;7.180;2024-03-08T06:51:03;9.30;65.00
36450;DHT22;22475;51.390;7.180;2024-03-08T06:53:30;9.30;65.10
36450;DHT22;22475;51.390;7.180;2024-03-08T06:55:56;9.30;65.60
36450;DHT22;22475;51.390;7.180;2024-03-08T06:58:25;9.30;65.80
36450;DHT22;22475;51.390;7.180;2024-03-08T07:00:53;9.30;65.80
36450;DHT22;22475;51.390;7.180;2024-03-08T07:03:21;9.30;65.80
36450;DHT22;22475;51.390;7.180;2024-03-08T07:05:47;9.30;65.70
36450;DHT22;22475;51.390;7.180;2024-03-08T07:08:14;9.30;65.70
36450;DHT22;22475;51.390;7.180;2024-03-08T07:10:42;9.30;65.90
36450;DHT22;22475;51.390;7.180;2024-03-08T07:13:10;9.40;66.30
36450;DHT22;22475;51.390;7.180;2024-03-08T07:15:38;9.40;66.30
36450;DHT22;22475;51.390;7.180;2024-03-08T07:18:05;9.40;66.30
36450;DHT22;22475;51.390;7.180;2024-03-08T07:20:34;9.40;66.40
36450;DHT22;22475;51.390;7.180;2024-03-08T07:23:02;9.40;66.80
36450;DHT22;22475;51.390;7.180;2024-03-08T07:25:29;9.40;67.10
36450;DHT22;22475;51.390;7.180;2024-03-08T07:27:56;9.40;67.00
36450;DHT22;22475;51.390;7.180;2024-03-08T07:30:24;9.40;67.00
36450;DHT22;22475;51.390;7.180;2024-03-08T07:33:10;9.50;67.20
36450;DHT22;22475;51.390;7.180;2024-03-08T07:35:38;9.50;68.20
36450;DHT22;22475;51.390;7.180;2024-03-08T07:38:06;9.50;67.50
36450;DHT22;22475;51.390;7.180;2024-03-08T07:40:35;9.60;67.60
36450;DHT22;22475;51.390;7.180;2024-03-08T07:43:02;9.60;67.70
36450;DHT22;22475;51.390;7.180;2024-03-08T07:45:29;9.60;67.80
36450;DHT22;22475;51.390;7.180;2024-03-08T07:47:56;9.60;67.90
36450;DHT22;22475;51.390;7.180;2024-03-08T07:50:25;9.60;68.10
36450;DHT22;22475;51.390;7.180;2024-03-08T07:52:52;9.70;68.40
36450;DHT22;22475;51.390;7.180;2024-03-08T07:55:18;9.70;68.50
36450;DHT22;22475;51.390;7.180;2024-03-08T07:57:45;9.80;68.60
36450;DHT22;22475;51.390;7.180;2024-03-08T08:00:13;9.80;68.60
36450;DHT22;22475;51.390;7.180;2024-03-08T08:02:43;9.80;68.50
36450;DHT22;22475;51.390;7.180;2024-03-08T08:05:10;9.90;68.60
36450;DHT22;22475;51.390;7.180;2024-03-08T08:07:39;9.90;68.90
36450;DHT22;22475;51.390;7.180;2024-03-08T08:10:07;10.00;69.20
36450;DHT22;22475;51.390;7.180;2024-03-08T08:12:44;10.00;69.30
36450;DHT22;22475;51.390;7.180;2024-03-08T08:15:11;10.00;69.00
36450;DHT22;22475;51.390;7.180;2024-03-08T08:17:38;10.10;68.10
36450;DHT22;22475;51.390;7.180;2024-03-08T08:20:05;10.00;67.30
36450;DHT22;22475;51.390;7.180;2024-03-08T08:22:32;10.10;66.90
36450;DHT22;22475;51.390;7.180;2024-03-08T08:25:01;10.10;66.90
36450;DHT22;22475;51.390;7.180;2024-03-08T08:27:28;10.10;66.80
36450;DHT22;22475;51.390;7.180;2024-03-08T08:29:55;10.20;66.90
36450;DHT22;22475;51.390;7.180;2024-03-08T08:32:22;10.20;66.90
36450;DHT22;22475;51.390;7.180;2024-03-08T08:34:49;10.30;67.10
36450;DHT22;22475;51.390;7.180;2024-03-08T08:37:15;10.30;66.80
36450;DHT22;22475;51.390;7.180;2024-03-08T08:39:42;10.30;66.40
36450;DHT22;22475;51.390;7.180;2024-03-08T08:42:10;10.30;66.00
36450;DHT22;22475;51.390;7.180;2024-03-08T08:44:38;10.30;65.90
36450;DHT22;22475;51.390;7.180;2024-03-08T08:47:05;10.40;65.60
36450;DHT22;22475;51.390;7.180;2024-03-08T08:49:33;10.40;65.50
36450;DHT22;22475;51.390;7.180;2024-03-08T08:52:00;10.40;65.20
36450;DHT22;22475;51.390;7.180;2024-03-08T08:54:28;10.50;65.10
36450;DHT22;22475;51.390;7.180;2024-03-08T08:56:55;10.50;64.90
36450;DHT22;22475;51.390;7.180;2024-03-08T08:59:23;10.50;64.90
36450;DHT22;22475;51.390;7.180;2024-03-08T09:01:50;10.50;64.80
36450;DHT22;22475;51.390;7.180;2024-03-08T09:04:19;10.50;64.80
36450;DHT22;22475;51.390;7.180;2024-03-08T09:06:47;10.60;65.10
36450;DHT22;22475;51.390;7.180;2024-03-08T09:09:13;10.50;65.00
36450;DHT22;22475;51.390;7.180;2024-03-08T09:11:42;10.60;65.00
36450;DHT22;22475;51.390;7.180;2024-03-08T09:14:09;10.60;65.30
36450;DHT22;22475;51.390;7.180;2024-03-08T09:16:38;10.60;64.80
36450;DHT22;22475;51.390;7.180;2024-03-08T09:19:05;10.60;64.80
36450;DHT22;22475;51.390;7.180;2024-03-08T09:21:32;10.60;64.70
36450;DHT22;22475;51.390;7.180;2024-03-08T09:24:00;10.60;65.50
36450;DHT22;22475;51.390;7.180;2024-03-08T09:26:27;10.70;64.70
36450;DHT22;22475;51.390;7.180;2024-03-08T09:28:53;10.70;64.40
36450;DHT22;22475;51.390;7.180;2024-03-08T09:31:21;10.70;64.30
36450;DHT22;22475;51.390;7.180;2024-03-08T09:33:49;10.70;64.10
36450;DHT22;22475;51.390;7.180;2024-03-08T09:36:17;10.80;64.30
36450;DHT22;22475;51.390;7.180;2024-03-08T09:38:44;10.80;64.40
36450;DHT22;22475;51.390;7.180;2024-03-08T09:41:11;10.80;64.40
36450;DHT22;22475;51.390;7.180;2024-03-08T09:43:38;10.90;64.10
36450;DHT22;22475;51.390;7.180;2024-03-08T09:46:06;10.90;64.00
36450;DHT22;22475;51.390;7.180;2024-03-08T09:48:34;10.90;64.00
36450;DHT22;22475;51.390;7.180;2024-03-08T09:51:03;10.90;64.00
36450;DHT22;22475;51.390;7.180;2024-03-08T09:53:30;10.90;64.10
36450;DHT22;22475;51.390;7.180;2024-03-08T09:55:57;10.90;64.10
36450;DHT22;22475;51.390;7.180;2024-03-08T09:58:24;10.90;64.00
36450;DHT22;22475;51.390;7.180;2024-03-08T10:01:19;10.90;63.80
36450;DHT22;22475;51.390;7.180;2024-03-08T10:03:47;10.90;64.50
36450;DHT22;22475;51.390;7.180;2024-03-08T10:06:16;11.00;64.10
36450;DHT22;22475;51.390;7.180;2024-03-08T10:08:43;11.00;64.00
36450;DHT22;22475;51.390;7.180;2024-03-08T10:11:10;11.00;63.80
36450;DHT22;22475;51.390;7.180;2024-03-08T10:13:37;11.00;63.90
36450;DHT22;22475;51.390;7.180;2024-03-08T10:16:06;11.00;64.00
36450;DHT22;22475;51.390;7.180;2024-03-08T10:18:33;11.00;63.80
36450;DHT22;22475;51.390;7.180;2024-03-08T10:21:06;11.00;63.70
36450;DHT22;22475;51.390;7.180;2024-03-08T10:23:37;11.10;63.90
36450;DHT22;22475;51.390;7.180;2024-03-08T10:26:11;11.10;63.90
36450;DHT22;22475;51.390;7.180;2024-03-08T10:28:40;11.10;63.70
36450;DHT22;22475;51.390;7.180;2024-03-08T10:31:07;11.20;63.70
36450;DHT22;22475;51.390;7.180;2024-03-08T10:33:34;11.20;64.20
36450;DHT22;22475;51.390;7.180;2024-03-08T10:36:04;11.20;64.00
36450;DHT22;22475;51.390;7.180;2024-03-08T10:38:32;11.20;63.90
36450;DHT22;22475;51.390;7.180;2024-03-08T10:41:01;11.30;63.80
36450;DHT22;22475;51.390;7.180;2024-03-08T10:43:31;11.30;63.90
36450;DHT22;22475;51.390;7.180;2024-03-08T10:46:09;11.30;64.10
36450;DHT22;22475;51.390;7.180;2024-03-08T10:48:43;11.30;63.90
36450;DHT22;22475;51.390;7.180;2024-03-08T10:51:11;11.30;64.00
36450;DHT22;22475;51.390;7.180;2024-03-08T10:53:38;11.40;64.10
36450;DHT22;22475;51.390;7.180;2024-03-08T10:56:08;11.40;63.80
36450;DHT22;22475;51.390;7.180;2024-03-08T10:58:36;11.40;63.70
36450;DHT22;22475;51.390;7.180;2024-03-08T11:01:04;11.40;63.30
36450;DHT22;22475;51.390;7.180;2024-03-08T11:03:44;11.50;63.10
36450;DHT22;22475;51.390;7.180;2024-03-08T11:06:15;11.50;62.90
36450;DHT22;22475;51.390;7.180;2024-03-08T11:08:42;11.50;61.50
36450;DHT22;22475;51.390;7.180;2024-03-08T11:11:26;11.60;63.70
36450;DHT22;22475;51.390;7.180;2024-03-08T11:13:56;11.60;61.80
36450;DHT22;22475;51.390;7.180;2024-03-08T11:16:39;11.60;61.00
36450;DHT22;22475;51.390;7.180;2024-03-08T11:19:26;11.60;60.20
36450;DHT22;22475;51.390;7.180;2024-03-08T11:22:01;11.60;59.80
36450;DHT22;22475;51.390;7.180;2024-03-08T11:24:28;11.60;59.90
36450;DHT22;22475;51.390;7.180;2024-03-08T11:27:05;11.60;59.90
36450;DHT22;22475;51.390;7.180;2024-03-08T11:29:36;11.70;59.60
36450;DHT22;22475;51.390;7.180;2024-03-08T11:32:09;11.70;59.60
36450;DHT22;22475;51.390;7.180;2024-03-08T11:34:36;11.70;59.50
36450;DHT22;22475;51.390;7.180;2024-03-08T11:37:05;11.80;59.50
36450;DHT22;22475;51.390;7.180;2024-03-08T11:39:35;11.80;59.10
36450;DHT22;22475;51.390;7.180;2024-03-08T11:42:05;11.80;59.30
36450;DHT22;22475;51.390;7.180;2024-03-08T11:44:32;11.80;61.00
36450;DHT22;22475;51.390;7.180;2024-03-08T11:46:59;11.90;59.50
36450;DHT22;22475;51.390;7.180;2024-03-08T11:49:26;11.90;58.90
36450;DHT22;22475;51.390;7.180;2024-03-08T11:51:53;11.90;58.70
36450;DHT22;22475;51.390;7.180;2024-03-08T11:54:20;11.90;58.80
36450;DHT22;22475;51.390;7.180;2024-03-08T11:56:47;11.90;58.80
36450;DHT22;22475;51.390;7.180;2024-03-08T11:59:15;12.00;59.00
36450;DHT22;22475;51.390;7.180;2024-03-08T12:01:43;12.00;59.00
36450;DHT22;22475;51.390;7.180;2024-03-08T12:04:12;12.00;59.20
36450;DHT22;22475;51.390;7.180;2024-03-08T12:06:39;12.00;59.00
36450;DHT22;22475;51.390;7.180;2024-03-08T12:09:08;12.10;59.00
36450;DHT22;22475;51.390;7.180;2024-03-08T12:11:36;12.10;58.50
36450;DHT22;22475;51.390;7.180;2024-03-08T12:14:03;12.10;58.20
36450;DHT22;22475;51.390;7.180;2024-03-08T12:16:32;12.10;58.00
36450;DHT22;22475;51.390;7.180;2024-03-08T12:18:59;12.00;57.90
36450;DHT22;22475;51.390;7.180;2024-03-08T12:21:31;12.00;58.00
36450;DHT22;22475;51.390;7.180;2024-03-08T12:24:04;12.10;58.00
36450;DHT22;22475;51.390;7.180;2024-03-08T12:26:35;12.10;58.00
36450;DHT22;22475;51.390;7.180;2024-03-08T12:29:16;12.10;58.00
36450;DHT22;22475;51.390;7.180;2024-03-08T12:31:47;12.10;58.00
36450;DHT22;22475;51.390;7.180;2024-03-08T12:34:14;12.20;57.80
36450;DHT22;22475;51.390;7.180;2024-03-08T12:36:45;12.20;58.00
36450;DHT22;22475;51.390;7.180;2024-03-08T12:39:15;12.20;57.90
36450;DHT22;22475;51.390;7.180;2024-03-08T12:41:43;12.20;58.10
36450;DHT22;22475;51.390;7.180;2024-03-08T12:44:10;12.20;57.80
36450;DHT22;22475;51.390;7.180;2024-03-08T12:46:38;12.20;57.70
36450;DHT22;22475;51.390;7.180;2024-03-08T12:49:08;12.30;57.80
36450;DHT22;22475;51.390;7.180;2024-03-08T12:51:36;12.30;57.70
36450;DHT22;22475;51.390;7.180;2024-03-08T12:54:04;12.30;57.60
36450;DHT22;22475;51.390;7.180;2024-03-08T12:56:33;12.30;57.40
36450;DHT22;22475;51.390;7.180;2024-03-08T12:59:03;12.30;57.40
36450;DHT22;22475;51.390;7.180;2024-03-08T13:01:30;12.40;57.30
36450;DHT22;22475;51.390;7.180;2024-03-08T13:03:58;12.40;57.30
36450;DHT22;22475;51.390;7.180;2024-03-08T13:06:27;12.40;57.30
36450;DHT22;22475;51.390;7.180;2024-03-08T13:08:54;12.40;56.90
36450;DHT22;22475;51.390;7.180;2024-03-08T13:11:22;12.50;57.10
36450;DHT22;22475;51.390;7.180;2024-03-08T13:13:49;12.50;56.80
36450;DHT22;22475;51.390;7.180;2024-03-08T13:16:15;12.50;56.60
36450;DHT22;22475;51.390;7.180;2024-03-08T13:18:44;12.50;56.50
36450;DHT22;22475;51.390;7.180;2024-03-08T13:21:14;12.50;56.70
36450;DHT22;22475;51.390;7.180;2024-03-08T13:23:45;12.50;58.00
36450;DHT22;22475;51.390;7.180;2024-03-08T13:26:15;12.60;57.20
36450;DHT22;22475;51.390;7.180;2024-03-08T13:28:42;12.60;56.80
36450;DHT22;22475;51.390;7.180;2024-03-08T13:31:09;12.60;56.20
36450;DHT22;22475;51.390;7.180;2024-03-08T13:33:36;12.60;55.70
36450;DHT22;22475;51.390;7.180;2024-03-08T13:36:05;12.60;55.80
36450;DHT22;22475;51.390;7.180;2024-03-08T13:38:40;12.60;55.80
36450;DHT22;22475;51.390;7.180;2024-03-08T13:41:10;12.60;55.70
36450;DHT22;22475;51.390;7.180;2024-03-08T13:43:40;12.60;55.40
36450;DHT22;22475;51.390;7.180;2024-03-08T13:46:06;12.70;58.30
36450;DHT22;22475;51.390;7.180;2024-03-08T13:48:35;12.70;59.40
36450;DHT22;22475;51.390;7.180;2024-03-08T13:51:03;12.80;59.30
36450;DHT22;22475;51.390;7.180;2024-03-08T13:53:30;12.70;58.20
36450;DHT22;22475;51.390;7.180;2024-03-08T13:55:58;12.80;62.60
36450;DHT22;22475;51.390;7.180;2024-03-08T13:58:27;12.80;63.20
36450;DHT22;22475;51.390;7.180;2024-03-08T14:00:54;12.80;61.30
36450;DHT22;22475;51.390;7.180;2024-03-08T14:03:21;12.80;58.50
36450;DHT22;22475;51.390;7.180;2024-03-08T14:05:49;12.80;57.20
36450;DHT22;22475;51.390;7.180;2024-03-08T14:08:16;12.80;56.70
36450;DHT22;22475;51.390;7.180;2024-03-08T14:10:43;12.80;56.30
36450;DHT22;22475;51.390;7.180;2024-03-08T14:13:12;12.80;56.30
36450;DHT22;22475;51.390;7.180;2024-03-08T14:15:42;12.80;56.40
36450;DHT22;22475;51.390;7.180;2024-03-08T14:18:11;12.80;56.60
36450;DHT22;22475;51.390;7.180;2024-03-08T14:20:39;12.80;56.20
36450;DHT22;22475;51.390;7.180;2024-03-08T14:23:07;12.80;55.60
36450;DHT22;22475;51.390;7.180;2024-03-08T14:25:34;12.80;55.50
36450;DHT22;22475;51.390;7.180;2024-03-08T14:28:01;12.80;56.00
36450;DHT22;22475;51.390;7.180;2024-03-08T14:30:32;12.80;58.20
36450;DHT22;22475;51.390;7.180;2024-03-08T14:33:01;12.80;56.70
36450;DHT22;22475;51.390;7.180;2024-03-08T14:35:28;12.80;56.00
36450;DHT22;22475;51.390;7.180;2024-03-08T14:37:56;12.90;56.80
36450;DHT22;22475;51.390;7.180;2024-03-08T14:40:23;12.90;58.70
36450;DHT22;22475;51.390;7.180;2024-03-08T14:42:51;12.90;56.60
36450;DHT22;22475;51.390;7.180;2024-03-08T14:45:18;12.90;56.50
36450;DHT22;22475;51.390;7.180;2024-03-08T14:47:45;12.80;55.80
36450;DHT22;22475;51.390;7.180;2024-03-08T14:50:16;12.80;55.60
36450;DHT22;22475;51.390;7.180;2024-03-08T14:52:43;12.80;55.80
36450;DHT22;22475;51.390;7.180;2024-03-08T14:55:10;12.80;55.80
36450;DHT22;22475;51.390;7.180;2024-03-08T14:57:40;12.90;56.80
36450;DHT22;22475;51.390;7.180;2024-03-08T15:00:07;12.90;55.90
36450;DHT22;22475;51.390;7.180;2024-03-08T15:02:42;12.80;55.80
36450;DHT22;22475;51.390;7.180;2024-03-08T15:05:09;12.90;56.80
36450;DHT22;22475;51.390;7.180;2024-03-08T15:07:38;12.90;56.40
36450;DHT22;22475;51.390;7.180;2024-03-08T15:10:07;12.90;56.10
36450;DHT22;22475;51.390;7.180;2024-03-08T15:12:37;12.80;55.60
36450;DHT22;22475;51.390;7.180;2024-03-08T15:15:06;12.80;55.60
36450;DHT22;22475;51.390;7.180;2024-03-08T15:17:33;12.80;55.40
36450;DHT22;22475;51.390;7.180;2024-03-08T15:20:02;12.80;55.50
36450;DHT22;22475;51.390;7.180;2024-03-08T15:22:29;12.90;55.70
36450;DHT22;22475;51.390;7.180;2024-03-08T15:24:57;12.80;55.60
36450;DHT22;22475;51.390;7.180;2024-03-08T15:27:24;12.80;56.30
36450;DHT22;22475;51.390;7.180;2024-03-08T15:29:51;12.80;56.00
36450;DHT22;22475;51.390;7.180;2024-03-08T15:32:21;12.80;55.80
36450;DHT22;22475;51.390;7.180;2024-03-08T15:34:48;12.80;55.60
36450;DHT22;22475;51.390;7.180;2024-03-08T15:37:15;12.80;55.70
36450;DHT22;22475;51.390;7.180;2024-03-08T15:39:42;12.80;55.80
36450;DHT22;22475;51.390;7.180;2024-03-08T15:42:11;12.80;55.90